createdAt,value
2022-10-22T00:02:35.502Z,4.22
2022-10-22T00:07:59.375Z,4.30
2022-10-22T00:13:21.784Z,4.30
2022-10-22T00:18:43.931Z,4.55
2022-10-22T00:24:07.391Z,4.22
2022-10-22T00:29:28.866Z,4.22
2022-10-22T00:34:50.979Z,3.72
2022-10-22T00:40:15.173Z,4.22
2022-10-22T00:45:37.939Z,3.80
2022-10-22T00:51:02.965Z,4.70
2022-10-22T00:56:26.135Z,4.32
2022-10-22T01:01:49.208Z,3.92
2022-10-22T01:07:19.396Z,3.90
2022-10-22T01:12:53.183Z,4.10
2022-10-22T01:18:23.826Z,3.90
2022-10-22T01:29:15.331Z,4.30
2022-10-22T01:34:43.000Z,4.18
2022-10-22T01:40:06.829Z,4.30
2022-10-22T01:45:31.524Z,3.78
2022-10-22T01:51:09.128Z,3.75
2022-10-22T01:56:52.175Z,4.10
2022-10-22T02:02:27.345Z,4.50
2022-10-22T02:07:52.563Z,4.35
2022-10-22T02:13:19.489Z,4.10
2022-10-22T02:18:46.206Z,4.60
2022-10-22T02:24:09.455Z,4.15
2022-10-22T02:29:37.090Z,4.93
2022-10-22T02:35:02.464Z,4.68
2022-10-22T02:40:24.896Z,4.80
2022-10-22T02:45:50.353Z,4.68
2022-10-22T02:51:13.039Z,4.25
2022-10-22T02:56:34.946Z,4.53
2022-10-22T03:01:56.653Z,4.90
2022-10-22T03:07:19.491Z,4.28
2022-10-22T03:12:41.198Z,4.55
2022-10-22T03:18:02.973Z,4.45
2022-10-22T03:23:26.969Z,4.80
2022-10-22T03:28:49.205Z,4.80
2022-10-22T03:34:12.103Z,4.97
2022-10-22T03:39:36.603Z,4.75
2022-10-22T03:44:58.013Z,5.43
2022-10-22T03:50:19.651Z,4.38
2022-10-22T03:55:43.466Z,4.55
2022-10-22T04:01:08.689Z,4.97
2022-10-22T04:06:31.314Z,5.25
2022-10-22T04:11:54.303Z,4.50
2022-10-22T04:17:16.235Z,5.03
2022-10-22T04:22:38.645Z,6.80
2022-10-22T04:28:02.814Z,4.63
2022-10-22T04:33:24.773Z,4.40
2022-10-22T04:38:48.170Z,5.65
2022-10-22T04:44:13.674Z,5.00
2022-10-22T04:49:37.616Z,5.45
2022-10-22T04:54:59.242Z,5.63
2022-10-22T05:00:22.366Z,6.22
2022-10-22T05:05:43.845Z,4.65
2022-10-22T05:11:12.733Z,4.70
2022-10-22T05:16:36.116Z,5.10
2022-10-22T05:21:59.750Z,4.82
2022-10-22T05:27:21.342Z,5.55
2022-10-22T05:32:44.790Z,5.88
2022-10-22T05:38:06.457Z,5.38
2022-10-22T05:43:28.426Z,4.65
2022-10-22T05:48:52.106Z,5.15
2022-10-22T05:54:19.610Z,5.22
2022-10-22T05:59:41.175Z,4.57
2022-10-22T06:05:04.386Z,4.80
2022-10-22T06:10:26.193Z,5.45
2022-10-22T06:15:47.942Z,5.40
2022-10-22T06:21:12.976Z,4.50
2022-10-22T06:26:34.979Z,4.97
2022-10-22T06:31:56.661Z,4.55
2022-10-22T06:37:19.522Z,4.25
2022-10-22T06:42:41.273Z,5.00
2022-10-22T06:48:03.322Z,4.40
2022-10-22T06:53:26.349Z,3.58
2022-10-22T06:58:48.912Z,3.97
2022-10-22T07:04:11.853Z,3.92
2022-10-22T07:09:34.549Z,3.90
2022-10-22T07:14:56.290Z,4.43
2022-10-22T07:20:18.963Z,3.88
2022-10-22T07:25:41.979Z,3.55
2022-10-22T07:31:03.778Z,3.53
2022-10-22T07:36:25.223Z,4.00
2022-10-22T07:41:47.891Z,3.28
2022-10-22T07:47:09.575Z,3.08
2022-10-22T07:52:31.024Z,3.47
2022-10-22T07:57:54.020Z,3.40
2022-10-22T08:03:17.081Z,3.60
2022-10-22T08:08:38.667Z,3.63
2022-10-22T08:14:01.672Z,2.33
2022-10-22T08:19:23.057Z,2.22
2022-10-22T08:24:44.354Z,1.90
2022-10-22T08:30:09.470Z,2.05
2022-10-22T08:35:30.919Z,2.00
2022-10-22T08:40:55.482Z,2.08
2022-10-22T08:46:42.427Z,1.52
2022-10-22T08:52:04.439Z,1.52
2022-10-22T08:57:39.915Z,1.30
2022-10-22T09:03:19.438Z,1.30
2022-10-22T09:08:43.867Z,1.23
2022-10-22T09:14:06.179Z,0.93
2022-10-22T09:19:40.063Z,0.98
2022-10-22T09:25:18.510Z,0.90
2022-10-22T09:30:41.744Z,0.93
2022-10-22T09:36:07.737Z,1.00
2022-10-22T09:41:30.939Z,0.90
2022-10-22T09:46:52.597Z,0.95
2022-10-22T09:52:41.141Z,1.20
2022-10-22T09:58:02.857Z,0.90
2022-10-22T10:03:27.875Z,1.05
2022-10-22T10:08:51.659Z,0.90
2022-10-22T10:14:20.290Z,0.95
2022-10-22T10:19:52.162Z,1.20
2022-10-22T10:25:27.349Z,1.00
2022-10-22T10:30:55.698Z,1.00
2022-10-22T10:36:24.943Z,0.80
2022-10-22T10:41:56.683Z,1.10
2022-10-22T10:47:34.707Z,0.68
2022-10-22T10:53:04.990Z,0.60
2022-10-22T10:58:38.133Z,0.50
2022-10-22T11:04:25.826Z,0.63
2022-10-22T11:09:52.360Z,0.70
2022-10-22T11:15:26.974Z,0.80
2022-10-22T11:20:58.423Z,0.75
2022-10-22T11:26:30.676Z,0.50
2022-10-22T11:31:55.760Z,0.52
2022-10-22T11:37:18.628Z,0.50
2022-10-22T11:42:45.256Z,0.63
2022-10-22T11:48:18.977Z,0.82
2022-10-22T11:53:40.591Z,0.50
2022-10-22T11:59:03.484Z,0.80
2022-10-22T12:04:42.278Z,0.60
2022-10-22T12:10:07.670Z,0.60
2022-10-22T12:15:30.281Z,0.98
2022-10-22T12:20:54.715Z,0.50
2022-10-22T12:26:27.217Z,0.90
2022-10-22T12:31:48.781Z,0.98
2022-10-22T12:37:14.800Z,0.80
2022-10-22T12:42:38.213Z,0.70
2022-10-22T12:48:01.811Z,0.90
2022-10-22T12:53:28.757Z,0.70
2022-10-22T12:58:54.824Z,0.95
2022-10-22T13:04:23.779Z,0.70
2022-10-22T13:09:47.936Z,0.68
2022-10-22T13:15:34.609Z,1.30
2022-10-22T13:20:58.943Z,1.00
2022-10-22T13:26:22.039Z,0.70
2022-10-22T13:31:48.015Z,0.80
2022-10-22T13:37:10.611Z,1.00
2022-10-22T13:42:33.896Z,1.00
2022-10-22T13:47:57.093Z,1.23
2022-10-22T13:53:21.985Z,1.30
2022-10-22T13:58:46.501Z,1.00
2022-10-22T14:04:12.029Z,1.20
2022-10-22T14:09:33.671Z,1.27
2022-10-22T14:20:22.381Z,0.93
2022-10-22T14:25:44.168Z,1.20
2022-10-22T14:31:07.463Z,0.80
2022-10-22T14:36:29.660Z,1.20
2022-10-22T14:41:51.307Z,1.40
2022-10-22T14:47:16.628Z,1.33
2022-10-22T14:52:39.084Z,1.42
2022-10-22T14:58:03.782Z,1.13
2022-10-22T15:03:49.010Z,1.13
2022-10-22T15:09:22.474Z,2.50
2022-10-22T15:20:59.017Z,2.35
2022-10-22T15:26:22.798Z,2.03
2022-10-22T15:32:07.355Z,2.55
2022-10-22T15:37:41.258Z,2.40
2022-10-22T15:43:10.212Z,1.92
2022-10-22T15:48:35.724Z,1.60
2022-10-22T15:54:11.092Z,2.85
2022-10-22T15:59:35.817Z,2.50
2022-10-22T16:05:32.193Z,2.47
2022-10-22T16:11:01.264Z,2.88
2022-10-22T16:16:38.958Z,2.25
2022-10-22T16:22:13.282Z,2.92
2022-10-22T16:27:58.934Z,2.95
2022-10-22T16:33:39.134Z,3.00
2022-10-22T16:39:21.481Z,3.63
2022-10-22T16:45:07.072Z,3.60
2022-10-22T16:50:33.406Z,8.57
2022-10-22T16:56:00.899Z,15.25
2022-10-22T17:01:30.784Z,6.60
2022-10-22T17:06:57.273Z,5.60
2022-10-22T17:12:27.430Z,4.68
2022-10-22T17:17:58.059Z,5.82
2022-10-22T17:23:26.304Z,5.57
2022-10-22T17:28:53.327Z,5.57
2022-10-22T17:34:32.681Z,5.35
2022-10-22T17:39:59.173Z,5.43
2022-10-22T17:45:22.566Z,3.35
2022-10-22T17:50:50.572Z,3.90
2022-10-22T17:56:20.758Z,3.85
2022-10-22T18:01:50.491Z,3.00
2022-10-22T18:07:24.118Z,5.85
2022-10-22T18:12:48.183Z,3.55
2022-10-22T18:18:20.612Z,3.53
2022-10-22T18:23:51.656Z,3.58
2022-10-22T18:29:21.384Z,3.70
2022-10-22T18:34:45.977Z,3.80
2022-10-22T18:40:14.852Z,4.93
2022-10-22T18:45:47.893Z,4.05
2022-10-22T18:51:18.128Z,4.50
2022-10-22T18:56:43.681Z,4.57
2022-10-22T19:02:18.168Z,5.10
2022-10-22T19:07:43.933Z,4.65
2022-10-22T19:13:11.847Z,3.80
2022-10-22T19:18:44.893Z,2.72
2022-10-22T19:24:20.331Z,3.13
2022-10-22T19:29:56.605Z,3.08
2022-10-22T19:35:22.865Z,3.25
2022-10-22T19:40:45.516Z,3.30
2022-10-22T19:46:14.394Z,3.85
2022-10-22T19:51:42.381Z,2.85
2022-10-22T19:57:13.285Z,3.50
2022-10-22T20:02:45.200Z,3.30
2022-10-22T20:08:13.581Z,3.40
2022-10-22T20:19:11.500Z,3.70
2022-10-22T20:24:40.010Z,3.17
2022-10-22T20:30:07.895Z,3.50
2022-10-22T20:35:37.073Z,3.28
2022-10-22T20:41:07.452Z,3.15
2022-10-22T20:46:47.977Z,3.72
2022-10-22T20:52:36.331Z,3.78
2022-10-22T20:58:09.624Z,4.03
2022-10-22T21:03:48.147Z,4.45
2022-10-22T21:09:32.981Z,4.57
2022-10-22T21:15:14.645Z,4.90
2022-10-22T21:20:40.358Z,5.38
2022-10-22T21:26:09.190Z,6.30
2022-10-22T21:37:16.143Z,6.82
2022-10-22T21:42:49.780Z,7.65
2022-10-22T21:48:18.806Z,7.15
2022-10-22T21:53:48.024Z,7.15
2022-10-22T21:59:18.992Z,14.20
2022-10-22T22:04:42.185Z,13.20
2022-10-22T22:10:08.946Z,9.30
2022-10-22T22:15:47.892Z,7.05
2022-10-22T22:21:20.083Z,6.30
2022-10-22T22:26:49.355Z,4.38
2022-10-22T22:32:20.310Z,4.40
2022-10-22T22:38:03.252Z,4.20
2022-10-22T22:43:30.005Z,3.40
2022-10-22T22:48:57.336Z,4.47
2022-10-22T22:54:25.541Z,3.75
2022-10-22T22:59:52.813Z,3.90
2022-10-22T23:05:21.468Z,3.78
2022-10-22T23:10:48.952Z,4.05
2022-10-22T23:16:16.080Z,4.22
2022-10-22T23:21:48.563Z,3.70
2022-10-22T23:27:14.523Z,3.10
2022-10-22T23:32:43.105Z,3.97
2022-10-22T23:38:41.149Z,3.83
2022-10-22T23:44:05.414Z,3.97
2022-10-22T23:49:31.426Z,3.85
2022-10-22T23:55:06.570Z,5.07
